Flood From: 19-02-2018 10:30 Until: 20-02-2018 06:00 warning for: Flood Level: Yellow info button

Although rather usual in this region, locally or potentially dangerous phenomena are expected. (such as local winds, summer thunderstorms, rising streams or high waves) Be aware and pay attention to the latest weather updates, especially if you carry out activities exposed to weather or close to a stream or shoreline. 


Meteo18 Weather Cam more information Meteo18 Weather Cam


Thunder radar more information blitzortung!


Rain radar more information rain snow radar


Visit our other weather sites:

Template documentation
and downloads

And another site



Weather Underground History page Text

Daily Summary for March 30, 2017 Units:  English    Metric   Both
« Previous Day
Next Day »
Daily Weekly Monthly Yearly Custom
  High: Low: Average:
Temperature: TemperatureC °F 8.4 °F 15.4 °F
Dew Point: DewpointC °F 5.5 °F 7.6 °F
Humidity: Humidity % 38 % 61 %
Wind Speed: WindSpeedKMH mph 0.0 mph 2.8 mph
Wind Gust: WindSpeedGustKMH mph - -
Wind:- - South
Pressure: PressurehPa in 1018.8 in -
Precipitation: 0.0 in    
Historical Graphs
 
 
Tabular Data for March 30, 2017
Time Temperature Dew Point Pressure Wind Wind Speed Wind Gust Humidity Rainfall Rate (Hourly)
TemperatureC °F DewpointC °F PressurehPa in Calm     Humidity % HourlyPrecipMM in
00:02 12.6 °F 6.6 °F 1027.3 in NNW 1.6 mph 3.2 mph 67 % 0.0 in
00:12 12.1 °F 6.6 °F 1027.3 in Calm   1.6 mph 69 % 0.0 in
00:17 12.0 °F 6.5 °F 1027.3 in Calm   1.6 mph 69 % 0.0 in
00:22 11.8 °F 6.5 °F 1027.3 in Calm   1.6 mph 70 % 0.0 in
00:32 11.2 °F 6.3 °F 1027.3 in Calm     72 % 0.0 in
00:42 11.5 °F 6.6 °F 1027.0 in Calm     72 % 0.0 in
00:52 11.6 °F 6.5 °F 1027.3 in Calm     71 % 0.0 in
00:57 11.4 °F 6.5 °F 1027.3 in Calm     72 % 0.0 in
01:02 11.4 °F 6.3 °F 1027.0 in Calm     71 % 0.0 in
01:12 11.2 °F 6.3 °F 1027.0 in NW 1.6 mph 1.6 mph 72 % 0.0 in
01:17 11.4 °F 6.5 °F 1027.0 in NW 1.6 mph 1.6 mph 72 % 0.0 in
01:22 11.6 °F 6.5 °F 1027.0 in NW 1.6 mph 3.2 mph 71 % 0.0 in
01:32 11.6 °F 6.5 °F 1027.0 in NW 1.6 mph 3.2 mph 71 % 0.0 in
01:42 11.6 °F 6.7 °F 1027.0 in Calm   1.6 mph 72 % 0.0 in
01:52 11.8 °F 6.7 °F 1027.0 in NNW 1.6 mph 3.2 mph 71 % 0.0 in
01:57 11.7 °F 6.6 °F 1027.0 in Calm   3.2 mph 71 % 0.0 in
02:02 11.8 °F 6.7 °F 1027.0 in Calm   3.2 mph 71 % 0.0 in
02:12 11.7 °F 6.6 °F 1027.0 in Calm   1.6 mph 71 % 0.0 in
02:17 11.7 °F 6.6 °F 1027.0 in Calm   1.6 mph 71 % 0.0 in
02:22 11.6 °F 6.5 °F 1027.0 in NNW 3.2 mph 3.2 mph 71 % 0.0 in
02:32 11.4 °F 6.3 °F 1027.0 in Calm   3.2 mph 71 % 0.0 in
02:42 11.5 °F 6.6 °F 1027.0 in Calm   3.2 mph 72 % 0.0 in
02:47 11.7 °F 6.6 °F 1026.6 in Calm   1.6 mph 71 % 0.0 in
02:52 11.6 °F 6.3 °F 1026.6 in Calm   1.6 mph 70 % 0.0 in
02:57 11.3 °F 6.4 °F 1026.6 in Calm   1.6 mph 72 % 0.0 in
03:02 11.3 °F 6.4 °F 1026.6 in Calm   1.6 mph 72 % 0.0 in
03:12 11.6 °F 6.5 °F 1026.6 in NNE 1.6 mph 1.6 mph 71 % 0.0 in
03:17 11.7 °F 6.6 °F 1026.6 in NE 1.6 mph 3.2 mph 71 % 0.0 in
03:22 11.9 °F 6.6 °F 1026.6 in Calm   3.2 mph 70 % 0.0 in
03:32 11.7 °F 6.2 °F 1026.3 in Calm   3.2 mph 69 % 0.0 in
03:37 11.3 °F 6.2 °F 1026.3 in Calm   3.2 mph 71 % 0.0 in
03:42 11.2 °F 6.3 °F 1026.3 in Calm   3.2 mph 72 % 0.0 in
03:47 11.2 °F 6.3 °F 1026.3 in North 1.6 mph 1.6 mph 72 % 0.0 in
03:52 11.2 °F 6.1 °F 1026.3 in Calm   1.6 mph 71 % 0.0 in
04:02 10.9 °F 6.1 °F 1026.3 in Calm   1.6 mph 72 % 0.0 in
04:12 9.9 °F 5.9 °F 1026.3 in WNW 1.6 mph 1.6 mph 76 % 0.0 in
04:17 9.7 °F 5.9 °F 1026.0 in WNW 1.6 mph 3.2 mph 77 % 0.0 in
04:22 9.9 °F 6.1 °F 1026.0 in Calm   3.2 mph 77 % 0.0 in
04:27 10.2 °F 6.0 °F 1026.0 in Calm   3.2 mph 75 % 0.0 in
04:32 10.1 °F 6.1 °F 1026.0 in Calm   1.6 mph 76 % 0.0 in
04:42 10.0 °F 6.0 °F 1026.0 in NNW 1.6 mph 1.6 mph 76 % 0.0 in
04:47 10.1 °F 5.9 °F 1026.0 in Calm   3.2 mph 75 % 0.0 in
04:52 9.8 °F 6.0 °F 1026.0 in NW 1.6 mph 3.2 mph 77 % 0.0 in
04:57 10.0 °F 6.2 °F 1026.0 in NW 1.6 mph 3.2 mph 77 % 0.0 in
05:02 10.3 °F 6.1 °F 1026.0 in Calm   3.2 mph 75 % 0.0 in
05:12 9.9 °F 5.9 °F 1026.0 in NW 1.6 mph 1.6 mph 76 % 0.0 in
05:17 10.0 °F 6.0 °F 1026.0 in NW 1.6 mph 1.6 mph 76 % 0.0 in
05:22 9.9 °F 5.9 °F 1026.0 in NW 1.6 mph 1.6 mph 76 % 0.0 in
05:32 10.1 °F 6.1 °F 1026.0 in NW 1.6 mph 1.6 mph 76 % 0.0 in
05:37 9.4 °F 5.6 °F 1026.0 in Calm   1.6 mph 77 % 0.0 in
05:42 8.9 °F 5.5 °F 1026.0 in Calm   1.6 mph 79 % 0.0 in
05:52 9.4 °F 5.9 °F 1025.6 in WNW 1.6 mph 1.6 mph 79 % 0.0 in
05:57 8.8 °F 5.7 °F 1025.6 in WNW 1.6 mph 1.6 mph 81 % 0.0 in
06:02 8.4 °F 5.5 °F 1025.6 in Calm   1.6 mph 82 % 0.0 in
06:07 8.7 °F 6.0 °F 1025.6 in WNW 1.6 mph 3.2 mph 83 % 0.0 in
06:12 9.1 °F 5.8 °F 1025.6 in Calm   3.2 mph 80 % 0.0 in
06:17 8.9 °F 5.6 °F 1025.6 in Calm   1.6 mph 80 % 0.0 in
06:22 9.0 °F 5.9 °F 1025.6 in Calm   1.6 mph 81 % 0.0 in
06:27 9.1 °F 6.0 °F 1025.6 in Calm   1.6 mph 81 % 0.0 in
06:32 9.1 °F 5.8 °F 1025.6 in Calm   1.6 mph 80 % 0.0 in
06:37 8.9 °F 5.6 °F 1025.6 in Calm   1.6 mph 80 % 0.0 in
06:42 8.7 °F 5.6 °F 1025.6 in WNW 1.6 mph 1.6 mph 81 % 0.0 in
06:52 8.8 °F 5.9 °F 1025.6 in Calm   1.6 mph 82 % 0.0 in
06:57 9.0 °F 5.9 °F 1025.6 in Calm   1.6 mph 81 % 0.0 in
07:02 9.2 °F 6.1 °F 1025.6 in Calm   1.6 mph 81 % 0.0 in
07:12 9.1 °F 6.0 °F 1025.6 in Calm     81 % 0.0 in
07:17 9.1 °F 6.0 °F 1025.6 in Calm     81 % 0.0 in
07:22 9.0 °F 5.9 °F 1025.6 in Calm     81 % 0.0 in
07:32 8.7 °F 5.8 °F 1025.6 in Calm     82 % 0.0 in
07:42 8.8 °F 5.9 °F 1025.6 in Calm     82 % 0.0 in
07:52 9.2 °F 5.9 °F 1025.6 in Calm     80 % 0.0 in
07:57 9.4 °F 6.1 °F 1025.6 in Calm     80 % 0.0 in
08:02 9.2 °F 5.9 °F 1025.6 in Calm     80 % 0.0 in
08:12 9.6 °F 6.3 °F 1025.6 in Calm   3.2 mph 80 % 0.0 in
08:17 9.8 °F 6.1 °F 1025.6 in NNE 1.6 mph 3.2 mph 78 % 0.0 in
08:22 10.1 °F 6.4 °F 1025.6 in Calm   3.2 mph 78 % 0.0 in
08:32 10.4 °F 6.5 °F 1025.6 in Calm   1.6 mph 77 % 0.0 in
08:42 10.7 °F 6.6 °F 1025.6 in ENE 1.6 mph 4.8 mph 76 % 0.0 in
08:52 10.7 °F 6.6 °F 1025.6 in Calm   4.8 mph 76 % 0.0 in
08:57 10.9 °F 6.8 °F 1025.6 in Calm   4.8 mph 76 % 0.0 in
09:02 11.2 °F 7.1 °F 1025.6 in Calm   4.8 mph 76 % 0.0 in
09:07 11.6 °F 7.3 °F 1025.6 in Calm   4.8 mph 75 % 0.0 in
09:12 11.8 °F 7.3 °F 1025.6 in Calm   3.2 mph 74 % 0.0 in
09:17 11.8 °F 7.1 °F 1025.6 in Calm   3.2 mph 73 % 0.0 in
09:22 11.9 °F 7.4 °F 1025.6 in East 1.6 mph 3.2 mph 74 % 0.0 in
09:32 11.9 °F 7.4 °F 1025.6 in Calm   4.8 mph 74 % 0.0 in
09:42 11.9 °F 7.6 °F 1025.6 in SE 3.2 mph 6.4 mph 75 % 0.0 in
09:52 12.7 °F 8.0 °F 1025.6 in SSE 3.2 mph 8.0 mph 73 % 0.0 in
09:57 12.9 °F 8.2 °F 1025.6 in East 1.6 mph 8.0 mph 73 % 0.0 in
10:02 12.8 °F 7.9 °F 1025.3 in Calm   4.8 mph 72 % 0.0 in
10:12 13.3 °F 8.6 °F 1025.3 in SE 3.2 mph 6.4 mph 73 % 0.0 in
10:17 13.3 °F 8.4 °F 1025.3 in SSE 8.0 mph 8.0 mph 72 % 0.0 in
10:22 13.4 °F 8.5 °F 1025.3 in SE 1.6 mph 9.7 mph 72 % 0.0 in
10:32 14.0 °F 8.8 °F 1025.3 in ESE 1.6 mph 9.7 mph 71 % 0.0 in
10:37 14.1 °F 8.9 °F 1025.3 in ESE 3.2 mph 9.7 mph 71 % 0.0 in
10:42 14.4 °F 8.8 °F 1025.3 in SSE 6.4 mph 9.7 mph 69 % 0.0 in
10:47 14.7 °F 9.1 °F 1025.3 in SE 4.8 mph 9.7 mph 69 % 0.0 in
10:52 14.9 °F 8.8 °F 1025.3 in East 1.6 mph 9.7 mph 67 % 0.0 in
11:02 15.5 °F 9.2 °F 1025.3 in SE 1.6 mph 11.3 mph 66 % 0.0 in
11:12 15.9 °F 9.3 °F 1024.9 in SE 3.2 mph 11.3 mph 65 % 0.0 in
11:17 16.1 °F 9.5 °F 1024.9 in SE 3.2 mph 11.3 mph 65 % 0.0 in
11:22 16.2 °F 9.4 °F 1024.9 in ESE 8.0 mph 11.3 mph 64 % 0.0 in
11:32 16.7 °F 9.9 °F 1024.9 in East 4.8 mph 16.1 mph 64 % 0.0 in
11:42 16.9 °F 9.1 °F 1024.9 in SE 8.0 mph 14.5 mph 60 % 0.0 in
11:47 17.1 °F 8.5 °F 1024.9 in ESE 4.8 mph 14.5 mph 57 % 0.0 in
11:52 17.2 °F 8.6 °F 1024.9 in SE 9.7 mph 17.7 mph 57 % 0.0 in
12:02 17.9 °F 10.0 °F 1024.6 in SE 6.4 mph 17.7 mph 60 % 0.0 in
12:12 17.9 °F 9.3 °F 1024.6 in ESE 4.8 mph 19.3 mph 57 % 0.0 in
12:17 18.1 °F 10.0 °F 1024.3 in SE 1.6 mph 19.3 mph 59 % 0.0 in
12:22 18.2 °F 9.8 °F 1024.3 in ESE 6.4 mph 17.7 mph 58 % 0.0 in
12:32 18.6 °F 9.9 °F 1024.3 in SE 6.4 mph 17.7 mph 57 % 0.0 in
12:37 18.7 °F 8.6 °F 1024.3 in SSE 9.7 mph 17.7 mph 52 % 0.0 in
12:42 18.8 °F 9.0 °F 1024.3 in SSE 11.3 mph 16.1 mph 53 % 0.0 in
12:47 19.2 °F 8.8 °F 1024.3 in ESE 9.7 mph 16.1 mph 51 % 0.0 in
12:52 19.1 °F 9.3 °F 1023.9 in East 8.0 mph 19.3 mph 53 % 0.0 in
13:02 19.4 °F 9.0 °F 1023.9 in SE 8.0 mph 19.3 mph 51 % 0.0 in
13:12 19.8 °F 9.1 °F 1023.9 in SE 8.0 mph 19.3 mph 50 % 0.0 in
13:17 19.7 °F 9.3 °F 1023.9 in SE 8.0 mph 19.3 mph 51 % 0.0 in
13:22 19.8 °F 9.1 °F 1023.6 in SSW 3.2 mph 19.3 mph 50 % 0.0 in
13:32 19.9 °F 8.9 °F 1023.6 in SSE 8.0 mph 17.7 mph 49 % 0.0 in
13:42 20.3 °F 9.2 °F 1023.6 in SE 8.0 mph 17.7 mph 49 % 0.0 in
13:47 20.1 °F 9.1 °F 1023.6 in SE 12.9 mph 16.1 mph 49 % 0.0 in
13:52 20.4 °F 9.3 °F 1023.2 in SE 9.7 mph 16.1 mph 49 % 0.0 in
13:57 20.8 °F 11.2 °F 1023.2 in SE 9.7 mph 16.1 mph 54 % 0.0 in
14:02 20.8 °F 9.7 °F 1023.2 in SW 8.0 mph 16.1 mph 49 % 0.0 in
14:12 21.1 °F 9.0 °F 1023.2 in SSE 8.0 mph 16.1 mph 46 % 0.0 in
14:17 21.1 °F 9.0 °F 1023.2 in SSE 9.7 mph 16.1 mph 46 % 0.0 in
14:22 21.0 °F 9.3 °F 1023.2 in SSE 8.0 mph 17.7 mph 47 % 0.0 in
14:27 21.3 °F 8.2 °F 1023.2 in ESE 8.0 mph 17.7 mph 43 % 0.0 in
14:32 21.3 °F 8.6 °F 1023.2 in SE 6.4 mph 17.7 mph 44 % 0.0 in
14:37 21.6 °F 9.2 °F 1022.9 in SSE 4.8 mph 16.1 mph 45 % 0.0 in
14:42 21.9 °F 8.8 °F 1022.9 in South 3.2 mph 16.1 mph 43 % 0.0 in
14:47 21.9 °F 8.1 °F 1022.9 in SSE 6.4 mph 16.1 mph 41 % 0.0 in
14:52 21.8 °F 7.6 °F 1022.9 in SE 6.4 mph 14.5 mph 40 % 0.0 in
15:02 22.0 °F 7.4 °F 1022.6 in SE 3.2 mph 14.5 mph 39 % 0.0 in
15:12 22.3 °F 8.0 °F 1022.2 in SE 3.2 mph 14.5 mph 40 % 0.0 in
15:17 22.2 °F 8.3 °F 1022.2 in SSE 6.4 mph 12.9 mph 41 % 0.0 in
15:22 22.1 °F 8.9 °F 1022.2 in South 4.8 mph 12.9 mph 43 % 0.0 in
15:32 22.2 °F 8.3 °F 1022.2 in SSE 6.4 mph 12.9 mph 41 % 0.0 in
15:42 22.6 °F 8.7 °F 1021.9 in ESE 4.8 mph 17.7 mph 41 % 0.0 in
15:47 22.5 °F 8.2 °F 1021.9 in SE 6.4 mph 17.7 mph 40 % 0.0 in
15:52 22.7 °F 8.8 °F 1021.9 in SE 9.7 mph 17.7 mph 41 % 0.0 in
15:57 22.7 °F 9.1 °F 1021.6 in ESE 9.7 mph 12.9 mph 42 % 0.0 in
16:02 22.6 °F 9.4 °F 1021.6 in East 8.0 mph 12.9 mph 43 % 0.0 in
16:07 22.3 °F 9.1 °F 1021.6 in SSE 11.3 mph 12.9 mph 43 % 0.0 in
16:17 22.8 °F 8.5 °F 1021.6 in SW 8.0 mph 14.5 mph 40 % 0.0 in
16:22 22.7 °F 7.6 °F 1021.6 in East 3.2 mph 14.5 mph 38 % 0.0 in
16:27 22.7 °F 8.0 °F 1021.6 in SSE 4.8 mph 14.5 mph 39 % 0.0 in
16:32 22.8 °F 8.5 °F 1021.6 in East 4.8 mph 14.5 mph 40 % 0.0 in
16:42 22.9 °F 9.7 °F 1021.2 in ESE 11.3 mph 14.5 mph 43 % 0.0 in
16:47 22.6 °F 8.7 °F 1021.2 in SSE 4.8 mph 14.5 mph 41 % 0.0 in
16:52 22.4 °F 9.9 °F 1021.2 in East 8.0 mph 14.5 mph 45 % 0.0 in
16:57 22.4 °F 9.9 °F 1021.2 in East 6.4 mph 12.9 mph 45 % 0.0 in
17:02 22.5 °F 8.6 °F 1021.2 in SE 6.4 mph 12.9 mph 41 % 0.0 in
17:12 22.2 °F 8.7 °F 1020.9 in East 9.7 mph 11.3 mph 42 % 0.0 in
17:17 22.3 °F 8.8 °F 1020.9 in SE 4.8 mph 14.5 mph 42 % 0.0 in
17:22 22.3 °F 8.8 °F 1020.9 in SE 4.8 mph 14.5 mph 42 % 0.0 in
17:32 22.2 °F 9.0 °F 1020.9 in East 4.8 mph 12.9 mph 43 % 0.0 in
17:37 22.2 °F 9.0 °F 1020.5 in ESE 3.2 mph 12.9 mph 43 % 0.0 in
17:42 22.2 °F 9.0 °F 1020.5 in SE 4.8 mph 12.9 mph 43 % 0.0 in
17:47 22.2 °F 8.0 °F 1020.5 in East 3.2 mph 8.0 mph 40 % 0.0 in
17:52 22.2 °F 8.7 °F 1020.5 in SE 3.2 mph 8.0 mph 42 % 0.0 in
17:57 22.2 °F 7.6 °F 1020.5 in East 8.0 mph 9.7 mph 39 % 0.0 in
18:02 22.0 °F 7.4 °F 1020.5 in ESE 4.8 mph 11.3 mph 39 % 0.0 in
18:12 21.9 °F 7.7 °F 1020.5 in SE 4.8 mph 11.3 mph 40 % 0.0 in
18:17 21.8 °F 8.0 °F 1020.5 in SE 3.2 mph 19.3 mph 41 % 0.0 in
18:22 21.6 °F 7.8 °F 1020.5 in SE 4.8 mph 19.3 mph 41 % 0.0 in
18:27 21.4 °F 7.6 °F 1020.2 in SE 3.2 mph 19.3 mph 41 % 0.0 in
18:37 21.2 °F 8.1 °F 1020.2 in ESE 3.2 mph 12.9 mph 43 % 0.0 in
18:42 21.0 °F 7.9 °F 1020.2 in ESE 3.2 mph 12.9 mph 43 % 0.0 in
18:52 20.8 °F 8.1 °F 1020.2 in ESE 4.8 mph 8.0 mph 44 % 0.0 in
19:02 20.7 °F 8.7 °F 1020.2 in SE 6.4 mph 8.0 mph 46 % 0.0 in
19:12 20.4 °F 9.0 °F 1019.9 in ESE 3.2 mph 8.0 mph 48 % 0.0 in
19:17 20.3 °F 8.9 °F 1020.2 in ESE 4.8 mph 8.0 mph 48 % 0.0 in
19:22 20.3 °F 8.6 °F 1019.9 in ESE 4.8 mph 8.0 mph 47 % 0.0 in
19:32 20.0 °F 8.7 °F 1019.9 in ESE 1.6 mph 9.7 mph 48 % 0.0 in
19:42 19.2 °F 8.8 °F 1019.9 in East 1.6 mph 8.0 mph 51 % 0.0 in
19:47 19.0 °F 8.6 °F 1019.9 in East 1.6 mph 6.4 mph 51 % 0.0 in
19:52 19.1 °F 8.7 °F 1019.9 in ENE 3.2 mph 4.8 mph 51 % 0.0 in
20:02 18.9 °F 8.8 °F 1019.9 in ESE 1.6 mph 4.8 mph 52 % 0.0 in
20:12 18.5 °F 8.7 °F 1019.9 in Calm   4.8 mph 53 % 0.0 in
20:17 18.4 °F 8.6 °F 1019.9 in Calm   4.8 mph 53 % 0.0 in
20:22 18.3 °F 8.8 °F 1019.9 in Calm   4.8 mph 54 % 0.0 in
20:32 17.9 °F 8.7 °F 1019.9 in Calm   3.2 mph 55 % 0.0 in
20:42 17.5 °F 8.4 °F 1019.9 in Calm   1.6 mph 55 % 0.0 in
20:47 17.4 °F 8.3 °F 1019.9 in Calm   1.6 mph 55 % 0.0 in
20:52 17.4 °F 8.3 °F 1019.9 in Calm   1.6 mph 55 % 0.0 in
20:57 17.3 °F 8.2 °F 1019.9 in Calm     55 % 0.0 in
21:02 17.1 °F 8.3 °F 1019.9 in Calm     56 % 0.0 in
21:12 17.0 °F 8.2 °F 1019.9 in Calm     56 % 0.0 in
21:17 17.0 °F 8.2 °F 1019.9 in Calm   1.6 mph 56 % 0.0 in
21:22 17.1 °F 8.3 °F 1019.9 in Calm   1.6 mph 56 % 0.0 in
21:27 16.8 °F 8.2 °F 1019.9 in WNW 1.6 mph 1.6 mph 57 % 0.0 in
21:32 16.3 °F 8.0 °F 1019.9 in WNW 1.6 mph 1.6 mph 58 % 0.0 in
21:42 16.3 °F 8.0 °F 1019.9 in Calm   1.6 mph 58 % 0.0 in
21:47 16.4 °F 8.1 °F 1019.9 in Calm   1.6 mph 58 % 0.0 in
21:52 16.4 °F 8.1 °F 1019.9 in Calm   1.6 mph 58 % 0.0 in
21:57 16.3 °F 8.0 °F 1019.9 in Calm   1.6 mph 58 % 0.0 in
22:02 16.1 °F 8.1 °F 1019.9 in Calm   1.6 mph 59 % 0.0 in
22:12 15.8 °F 8.0 °F 1019.5 in NNW 3.2 mph   60 % 0.0 in
22:17 15.9 °F 7.9 °F 1019.9 in NNW 3.2 mph 4.8 mph 59 % 0.0 in
22:22 15.8 °F 8.0 °F 1019.9 in NW 3.2 mph 4.8 mph 60 % 0.0 in
22:32 15.8 °F 8.0 °F 1019.5 in NW 1.6 mph 4.8 mph 60 % 0.0 in
22:37 15.9 °F 7.9 °F 1019.5 in NW 3.2 mph 4.8 mph 59 % 0.0 in
22:42 15.8 °F 8.0 °F 1019.5 in NW 1.6 mph 4.8 mph 60 % 0.0 in
22:52 15.4 °F 7.9 °F 1019.5 in NW 1.6 mph 3.2 mph 61 % 0.0 in
22:57 15.4 °F 7.9 °F 1019.5 in NW 1.6 mph 3.2 mph 61 % 0.0 in
23:02 15.4 °F 7.9 °F 1019.5 in WNW 1.6 mph 3.2 mph 61 % 0.0 in
23:12 15.4 °F 8.2 °F 1019.2 in Calm   3.2 mph 62 % 0.0 in
23:32 15.4 °F 8.2 °F 1019.2 in Calm     62 % 0.0 in
23:42 15.1 °F 8.1 °F 1019.2 in Calm     63 % 0.0 in
23:47 14.5 °F 8.0 °F 1018.8 in Calm     65 % 0.0 in
23:52 14.4 °F 8.1 °F 1018.8 in Calm     66 % 0.0 in
23:57 14.1 °F 8.1 °F 1018.8 in Calm     67 % 0.0 in
Meteo18
Compliments of Weather Underground - 4 mb

Script developed by  Jim McMurry - jmcmurry@mwt.net Adapted for the template by  Wim van der Kuil - Leuven-Template.eu

You find our weather info also at:

European Weather Network

Weather Underground

Equipment we use:

Weather-station
Davis Vue

Weather-program
Meteobridge

Weather-server
Raspberry PI 2 B+

Provider
1 and 1

Davis Vue

Meteobridge

Raspberry PI 2 B+

1 and 1